sensor_id;sensor_type;location;lat;lon;timestamp;P1;durP1;ratioP1;P2;durP2;ratioP2
48578;SDS011;34357;51.948;6.132;2024-01-15T00:00:55;13.13;;;2.97;;
48578;SDS011;34357;51.948;6.132;2024-01-15T00:03:21;10.37;;;3.23;;
48578;SDS011;34357;51.948;6.132;2024-01-15T00:05:47;10.57;;;2.50;;
48578;SDS011;34357;51.948;6.132;2024-01-15T00:08:13;7.87;;;2.80;;
48578;SDS011;34357;51.948;6.132;2024-01-15T00:10:39;12.90;;;2.33;;
48578;SDS011;34357;51.948;6.132;2024-01-15T00:13:06;7.93;;;2.20;;
48578;SDS011;34357;51.948;6.132;2024-01-15T00:15:32;13.53;;;2.27;;
48578;SDS011;34357;51.948;6.132;2024-01-15T00:17:58;9.13;;;2.27;;
48578;SDS011;34357;51.948;6.132;2024-01-15T00:20:25;7.53;;;1.70;;
48578;SDS011;34357;51.948;6.132;2024-01-15T00:22:52;8.67;;;1.93;;
48578;SDS011;34357;51.948;6.132;2024-01-15T00:25:19;10.20;;;2.00;;
48578;SDS011;34357;51.948;6.132;2024-01-15T00:27:45;9.90;;;2.23;;
48578;SDS011;34357;51.948;6.132;2024-01-15T00:30:14;15.13;;;1.80;;
48578;SDS011;34357;51.948;6.132;2024-01-15T00:32:40;12.53;;;1.90;;
48578;SDS011;34357;51.948;6.132;2024-01-15T00:35:06;7.73;;;1.83;;
48578;SDS011;34357;51.948;6.132;2024-01-15T00:37:32;12.73;;;1.60;;
48578;SDS011;34357;51.948;6.132;2024-01-15T00:39:58;8.37;;;1.53;;
48578;SDS011;34357;51.948;6.132;2024-01-15T00:42:24;7.73;;;1.50;;
48578;SDS011;34357;51.948;6.132;2024-01-15T00:44:50;7.53;;;1.60;;
48578;SDS011;34357;51.948;6.132;2024-01-15T00:47:20;12.13;;;1.70;;
48578;SDS011;34357;51.948;6.132;2024-01-15T00:49:46;14.23;;;1.90;;
48578;SDS011;34357;51.948;6.132;2024-01-15T00:52:12;12.10;;;1.67;;
48578;SDS011;34357;51.948;6.132;2024-01-15T00:54:38;7.13;;;1.40;;
48578;SDS011;34357;51.948;6.132;2024-01-15T00:57:05;16.20;;;1.90;;
48578;SDS011;34357;51.948;6.132;2024-01-15T00:59:31;12.10;;;2.67;;
48578;SDS011;34357;51.948;6.132;2024-01-15T01:01:57;7.53;;;1.33;;
48578;SDS011;34357;51.948;6.132;2024-01-15T01:04:23;8.47;;;1.40;;
48578;SDS011;34357;51.948;6.132;2024-01-15T01:06:50;11.37;;;1.77;;
48578;SDS011;34357;51.948;6.132;2024-01-15T01:09:16;18.47;;;1.90;;
48578;SDS011;34357;51.948;6.132;2024-01-15T01:11:42;12.63;;;2.10;;
48578;SDS011;34357;51.948;6.132;2024-01-15T01:14:08;12.20;;;2.07;;
48578;SDS011;34357;51.948;6.132;2024-01-15T01:16:34;10.83;;;1.93;;
48578;SDS011;34357;51.948;6.132;2024-01-15T01:19:04;12.30;;;1.90;;
48578;SDS011;34357;51.948;6.132;2024-01-15T01:21:32;13.97;;;2.40;;
48578;SDS011;34357;51.948;6.132;2024-01-15T01:23:58;12.50;;;2.53;;
48578;SDS011;34357;51.948;6.132;2024-01-15T01:26:24;15.40;;;3.47;;
48578;SDS011;34357;51.948;6.132;2024-01-15T01:28:50;10.13;;;2.27;;
48578;SDS011;34357;51.948;6.132;2024-01-15T01:31:23;12.07;;;2.50;;
48578;SDS011;34357;51.948;6.132;2024-01-15T01:33:49;13.53;;;2.40;;
48578;SDS011;34357;51.948;6.132;2024-01-15T01:36:26;16.70;;;2.73;;
48578;SDS011;34357;51.948;6.132;2024-01-15T01:38:52;13.30;;;2.13;;
48578;SDS011;34357;51.948;6.132;2024-01-15T01:41:18;13.97;;;2.03;;
48578;SDS011;34357;51.948;6.132;2024-01-15T01:43:44;14.80;;;2.30;;
48578;SDS011;34357;51.948;6.132;2024-01-15T01:46:10;7.17;;;1.63;;
48578;SDS011;34357;51.948;6.132;2024-01-15T01:48:36;11.03;;;1.93;;
48578;SDS011;34357;51.948;6.132;2024-01-15T01:51:03;16.27;;;2.20;;
48578;SDS011;34357;51.948;6.132;2024-01-15T01:53:29;11.87;;;2.20;;
48578;SDS011;34357;51.948;6.132;2024-01-15T01:55:58;10.33;;;1.77;;
48578;SDS011;34357;51.948;6.132;2024-01-15T01:58:25;12.50;;;2.40;;
48578;SDS011;34357;51.948;6.132;2024-01-15T02:00:51;11.90;;;3.00;;
48578;SDS011;34357;51.948;6.132;2024-01-15T02:03:20;17.20;;;3.20;;
48578;SDS011;34357;51.948;6.132;2024-01-15T02:05:47;17.23;;;2.90;;
48578;SDS011;34357;51.948;6.132;2024-01-15T02:08:14;19.00;;;3.13;;
48578;SDS011;34357;51.948;6.132;2024-01-15T02:10:40;15.93;;;3.03;;
48578;SDS011;34357;51.948;6.132;2024-01-15T02:13:06;19.80;;;3.40;;
48578;SDS011;34357;51.948;6.132;2024-01-15T02:15:32;13.73;;;3.03;;
48578;SDS011;34357;51.948;6.132;2024-01-15T02:18:05;16.27;;;3.07;;
48578;SDS011;34357;51.948;6.132;2024-01-15T02:20:33;23.53;;;3.97;;
48578;SDS011;34357;51.948;6.132;2024-01-15T02:23:06;16.53;;;3.73;;
48578;SDS011;34357;51.948;6.132;2024-01-15T02:25:40;15.67;;;4.37;;
48578;SDS011;34357;51.948;6.132;2024-01-15T02:28:13;19.03;;;3.50;;
48578;SDS011;34357;51.948;6.132;2024-01-15T02:30:41;19.65;;;4.30;;
48578;SDS011;34357;51.948;6.132;2024-01-15T02:33:09;20.40;;;4.10;;
48578;SDS011;34357;51.948;6.132;2024-01-15T02:35:36;12.43;;;3.13;;
48578;SDS011;34357;51.948;6.132;2024-01-15T02:38:03;25.00;;;3.87;;
48578;SDS011;34357;51.948;6.132;2024-01-15T02:40:30;17.30;;;3.47;;
48578;SDS011;34357;51.948;6.132;2024-01-15T02:42:56;14.17;;;2.90;;
48578;SDS011;34357;51.948;6.132;2024-01-15T02:45:22;16.20;;;3.47;;
48578;SDS011;34357;51.948;6.132;2024-01-15T02:47:48;17.57;;;3.27;;
48578;SDS011;34357;51.948;6.132;2024-01-15T02:50:14;15.80;;;2.93;;
48578;SDS011;34357;51.948;6.132;2024-01-15T02:52:44;14.90;;;2.70;;
48578;SDS011;34357;51.948;6.132;2024-01-15T02:55:10;12.07;;;2.67;;
48578;SDS011;34357;51.948;6.132;2024-01-15T02:57:35;16.47;;;2.90;;
48578;SDS011;34357;51.948;6.132;2024-01-15T03:00:02;12.47;;;2.80;;
48578;SDS011;34357;51.948;6.132;2024-01-15T03:02:29;8.53;;;2.13;;
48578;SDS011;34357;51.948;6.132;2024-01-15T03:04:57;13.80;;;1.87;;
48578;SDS011;34357;51.948;6.132;2024-01-15T03:07:22;10.00;;;1.93;;
48578;SDS011;34357;51.948;6.132;2024-01-15T03:09:49;20.60;;;3.90;;
48578;SDS011;34357;51.948;6.132;2024-01-15T03:12:15;15.27;;;2.47;;
48578;SDS011;34357;51.948;6.132;2024-01-15T03:14:41;18.40;;;2.83;;
48578;SDS011;34357;51.948;6.132;2024-01-15T03:17:07;16.57;;;2.80;;
48578;SDS011;34357;51.948;6.132;2024-01-15T03:19:35;15.83;;;2.67;;
48578;SDS011;34357;51.948;6.132;2024-01-15T03:22:01;8.30;;;1.90;;
48578;SDS011;34357;51.948;6.132;2024-01-15T03:24:29;11.73;;;2.00;;
48578;SDS011;34357;51.948;6.132;2024-01-15T03:26:56;13.80;;;2.17;;
48578;SDS011;34357;51.948;6.132;2024-01-15T03:29:22;15.50;;;2.13;;
48578;SDS011;34357;51.948;6.132;2024-01-15T03:31:48;15.00;;;2.50;;
48578;SDS011;34357;51.948;6.132;2024-01-15T03:34:14;15.43;;;2.03;;
48578;SDS011;34357;51.948;6.132;2024-01-15T03:36:40;15.00;;;2.43;;
48578;SDS011;34357;51.948;6.132;2024-01-15T03:39:06;15.83;;;2.50;;
48578;SDS011;34357;51.948;6.132;2024-01-15T03:41:32;21.23;;;2.50;;
48578;SDS011;34357;51.948;6.132;2024-01-15T03:43:58;14.03;;;2.07;;
48578;SDS011;34357;51.948;6.132;2024-01-15T03:46:24;16.80;;;2.10;;
48578;SDS011;34357;51.948;6.132;2024-01-15T03:48:50;10.93;;;2.40;;
48578;SDS011;34357;51.948;6.132;2024-01-15T03:51:19;14.00;;;2.47;;
48578;SDS011;34357;51.948;6.132;2024-01-15T03:53:45;14.60;;;2.67;;
48578;SDS011;34357;51.948;6.132;2024-01-15T03:56:11;18.33;;;2.77;;
48578;SDS011;34357;51.948;6.132;2024-01-15T03:58:38;17.50;;;2.67;;
48578;SDS011;34357;51.948;6.132;2024-01-15T04:01:03;18.60;;;2.97;;
48578;SDS011;34357;51.948;6.132;2024-01-15T04:03:34;22.43;;;2.40;;
48578;SDS011;34357;51.948;6.132;2024-01-15T04:06:00;16.77;;;2.30;;
48578;SDS011;34357;51.948;6.132;2024-01-15T04:08:25;14.33;;;2.03;;
48578;SDS011;34357;51.948;6.132;2024-01-15T04:10:51;10.53;;;1.43;;
48578;SDS011;34357;51.948;6.132;2024-01-15T04:13:17;15.70;;;2.63;;
48578;SDS011;34357;51.948;6.132;2024-01-15T04:15:43;11.80;;;1.50;;
48578;SDS011;34357;51.948;6.132;2024-01-15T04:18:09;8.80;;;1.03;;
48578;SDS011;34357;51.948;6.132;2024-01-15T04:20:35;11.73;;;1.33;;
48578;SDS011;34357;51.948;6.132;2024-01-15T04:23:01;11.93;;;1.93;;
48578;SDS011;34357;51.948;6.132;2024-01-15T04:25:27;8.70;;;1.13;;
48578;SDS011;34357;51.948;6.132;2024-01-15T04:27:53;13.33;;;1.70;;
48578;SDS011;34357;51.948;6.132;2024-01-15T04:30:19;4.70;;;0.97;;
48578;SDS011;34357;51.948;6.132;2024-01-15T04:32:45;15.37;;;1.30;;
48578;SDS011;34357;51.948;6.132;2024-01-15T04:35:10;9.67;;;1.27;;
48578;SDS011;34357;51.948;6.132;2024-01-15T04:37:38;13.13;;;1.60;;
48578;SDS011;34357;51.948;6.132;2024-01-15T04:40:14;14.07;;;2.17;;
48578;SDS011;34357;51.948;6.132;2024-01-15T04:42:40;16.03;;;2.27;;
48578;SDS011;34357;51.948;6.132;2024-01-15T04:45:06;20.53;;;2.30;;
48578;SDS011;34357;51.948;6.132;2024-01-15T04:47:32;11.40;;;1.53;;
48578;SDS011;34357;51.948;6.132;2024-01-15T04:49:58;18.20;;;2.13;;
48578;SDS011;34357;51.948;6.132;2024-01-15T04:52:24;17.87;;;3.00;;
48578;SDS011;34357;51.948;6.132;2024-01-15T04:54:50;17.83;;;2.30;;
48578;SDS011;34357;51.948;6.132;2024-01-15T04:57:16;19.83;;;3.43;;
48578;SDS011;34357;51.948;6.132;2024-01-15T04:59:42;15.57;;;2.27;;
48578;SDS011;34357;51.948;6.132;2024-01-15T05:02:08;11.87;;;2.40;;
48578;SDS011;34357;51.948;6.132;2024-01-15T05:04:34;17.37;;;2.83;;
48578;SDS011;34357;51.948;6.132;2024-01-15T05:07:01;16.93;;;3.40;;
48578;SDS011;34357;51.948;6.132;2024-01-15T05:09:27;15.57;;;2.87;;
48578;SDS011;34357;51.948;6.132;2024-01-15T05:11:54;17.43;;;2.70;;
48578;SDS011;34357;51.948;6.132;2024-01-15T05:14:20;23.77;;;3.03;;
48578;SDS011;34357;51.948;6.132;2024-01-15T05:16:49;16.33;;;3.10;;
48578;SDS011;34357;51.948;6.132;2024-01-15T05:19:15;18.63;;;3.47;;
48578;SDS011;34357;51.948;6.132;2024-01-15T05:21:41;15.60;;;3.40;;
48578;SDS011;34357;51.948;6.132;2024-01-15T05:24:07;17.17;;;3.87;;
48578;SDS011;34357;51.948;6.132;2024-01-15T05:26:33;21.60;;;4.23;;
48578;SDS011;34357;51.948;6.132;2024-01-15T05:28:59;14.33;;;3.43;;
48578;SDS011;34357;51.948;6.132;2024-01-15T05:31:25;17.33;;;3.33;;
48578;SDS011;34357;51.948;6.132;2024-01-15T05:33:51;19.07;;;3.10;;
48578;SDS011;34357;51.948;6.132;2024-01-15T05:36:17;13.73;;;2.73;;
48578;SDS011;34357;51.948;6.132;2024-01-15T05:38:43;19.53;;;2.83;;
48578;SDS011;34357;51.948;6.132;2024-01-15T05:41:08;19.87;;;2.97;;
48578;SDS011;34357;51.948;6.132;2024-01-15T05:43:35;18.63;;;2.70;;
48578;SDS011;34357;51.948;6.132;2024-01-15T05:46:01;18.53;;;2.70;;
48578;SDS011;34357;51.948;6.132;2024-01-15T05:48:28;17.13;;;2.97;;
48578;SDS011;34357;51.948;6.132;2024-01-15T05:50:54;9.07;;;2.60;;
48578;SDS011;34357;51.948;6.132;2024-01-15T05:53:20;13.43;;;2.83;;
48578;SDS011;34357;51.948;6.132;2024-01-15T05:55:45;21.13;;;4.27;;
48578;SDS011;34357;51.948;6.132;2024-01-15T05:58:11;18.50;;;3.20;;
48578;SDS011;34357;51.948;6.132;2024-01-15T06:00:37;12.40;;;3.10;;
48578;SDS011;34357;51.948;6.132;2024-01-15T06:03:03;17.17;;;3.27;;
48578;SDS011;34357;51.948;6.132;2024-01-15T06:05:29;11.03;;;2.33;;
48578;SDS011;34357;51.948;6.132;2024-01-15T06:07:55;13.90;;;2.77;;
48578;SDS011;34357;51.948;6.132;2024-01-15T06:10:21;10.53;;;3.10;;
48578;SDS011;34357;51.948;6.132;2024-01-15T06:12:47;18.47;;;3.70;;
48578;SDS011;34357;51.948;6.132;2024-01-15T06:15:12;11.70;;;3.37;;
48578;SDS011;34357;51.948;6.132;2024-01-15T06:17:39;12.10;;;3.53;;
48578;SDS011;34357;51.948;6.132;2024-01-15T06:20:08;10.90;;;3.90;;
48578;SDS011;34357;51.948;6.132;2024-01-15T06:22:34;8.23;;;4.50;;
48578;SDS011;34357;51.948;6.132;2024-01-15T06:25:02;15.03;;;4.63;;
48578;SDS011;34357;51.948;6.132;2024-01-15T06:27:28;11.20;;;4.10;;
48578;SDS011;34357;51.948;6.132;2024-01-15T06:29:54;13.37;;;3.93;;
48578;SDS011;34357;51.948;6.132;2024-01-15T06:32:21;12.97;;;4.10;;
48578;SDS011;34357;51.948;6.132;2024-01-15T06:34:47;11.63;;;3.67;;
48578;SDS011;34357;51.948;6.132;2024-01-15T06:37:13;13.27;;;4.07;;
48578;SDS011;34357;51.948;6.132;2024-01-15T06:39:38;11.63;;;3.77;;
48578;SDS011;34357;51.948;6.132;2024-01-15T06:42:04;10.87;;;4.30;;
48578;SDS011;34357;51.948;6.132;2024-01-15T06:44:30;9.13;;;3.30;;
48578;SDS011;34357;51.948;6.132;2024-01-15T06:46:56;14.03;;;4.13;;
48578;SDS011;34357;51.948;6.132;2024-01-15T06:49:27;9.30;;;4.22;;
48578;SDS011;34357;51.948;6.132;2024-01-15T06:51:54;12.43;;;4.57;;
48578;SDS011;34357;51.948;6.132;2024-01-15T06:54:23;8.20;;;3.97;;
48578;SDS011;34357;51.948;6.132;2024-01-15T06:56:51;9.85;;;4.35;;
48578;SDS011;34357;51.948;6.132;2024-01-15T06:59:17;12.37;;;4.67;;
48578;SDS011;34357;51.948;6.132;2024-01-15T07:01:43;10.07;;;5.20;;
48578;SDS011;34357;51.948;6.132;2024-01-15T07:04:09;7.20;;;3.30;;
48578;SDS011;34357;51.948;6.132;2024-01-15T07:06:35;13.27;;;5.60;;
48578;SDS011;34357;51.948;6.132;2024-01-15T07:09:01;11.30;;;5.37;;
48578;SDS011;34357;51.948;6.132;2024-01-15T07:11:27;12.97;;;6.63;;
48578;SDS011;34357;51.948;6.132;2024-01-15T07:13:53;12.17;;;7.03;;
48578;SDS011;34357;51.948;6.132;2024-01-15T07:16:22;13.10;;;7.27;;
48578;SDS011;34357;51.948;6.132;2024-01-15T07:18:48;17.67;;;8.17;;
48578;SDS011;34357;51.948;6.132;2024-01-15T07:21:14;18.30;;;9.70;;
48578;SDS011;34357;51.948;6.132;2024-01-15T07:23:40;13.57;;;9.00;;
48578;SDS011;34357;51.948;6.132;2024-01-15T07:26:06;20.43;;;11.70;;
48578;SDS011;34357;51.948;6.132;2024-01-15T07:28:32;21.97;;;13.63;;
48578;SDS011;34357;51.948;6.132;2024-01-15T07:31:04;22.97;;;15.47;;
48578;SDS011;34357;51.948;6.132;2024-01-15T07:33:31;21.00;;;15.23;;
48578;SDS011;34357;51.948;6.132;2024-01-15T07:35:57;23.03;;;16.87;;
48578;SDS011;34357;51.948;6.132;2024-01-15T07:38:23;25.27;;;16.53;;
48578;SDS011;34357;51.948;6.132;2024-01-15T07:40:49;27.30;;;19.77;;
48578;SDS011;34357;51.948;6.132;2024-01-15T07:43:15;26.50;;;19.63;;
48578;SDS011;34357;51.948;6.132;2024-01-15T07:45:41;23.63;;;17.33;;
48578;SDS011;34357;51.948;6.132;2024-01-15T07:48:07;28.07;;;18.03;;
48578;SDS011;34357;51.948;6.132;2024-01-15T07:50:33;28.70;;;18.47;;
48578;SDS011;34357;51.948;6.132;2024-01-15T07:52:59;25.30;;;17.40;;
48578;SDS011;34357;51.948;6.132;2024-01-15T07:55:25;25.37;;;17.00;;
48578;SDS011;34357;51.948;6.132;2024-01-15T07:57:51;22.03;;;17.30;;
48578;SDS011;34357;51.948;6.132;2024-01-15T08:00:28;24.07;;;17.13;;
48578;SDS011;34357;51.948;6.132;2024-01-15T08:02:53;23.27;;;16.53;;
48578;SDS011;34357;51.948;6.132;2024-01-15T08:05:20;20.63;;;15.17;;
48578;SDS011;34357;51.948;6.132;2024-01-15T08:07:46;20.83;;;15.07;;
48578;SDS011;34357;51.948;6.132;2024-01-15T08:10:12;19.30;;;14.87;;
48578;SDS011;34357;51.948;6.132;2024-01-15T08:12:39;19.53;;;13.90;;
48578;SDS011;34357;51.948;6.132;2024-01-15T08:15:05;19.03;;;14.23;;
48578;SDS011;34357;51.948;6.132;2024-01-15T08:17:31;22.83;;;14.57;;
48578;SDS011;34357;51.948;6.132;2024-01-15T08:20:00;18.07;;;12.97;;
48578;SDS011;34357;51.948;6.132;2024-01-15T08:22:26;15.97;;;11.67;;
48578;SDS011;34357;51.948;6.132;2024-01-15T08:24:52;16.90;;;12.23;;
48578;SDS011;34357;51.948;6.132;2024-01-15T08:27:20;18.37;;;12.20;;
48578;SDS011;34357;51.948;6.132;2024-01-15T08:29:53;19.30;;;12.93;;
48578;SDS011;34357;51.948;6.132;2024-01-15T08:32:19;17.83;;;12.60;;
48578;SDS011;34357;51.948;6.132;2024-01-15T08:34:46;18.17;;;13.30;;
48578;SDS011;34357;51.948;6.132;2024-01-15T08:37:14;16.40;;;12.77;;
48578;SDS011;34357;51.948;6.132;2024-01-15T08:39:40;16.60;;;11.90;;
48578;SDS011;34357;51.948;6.132;2024-01-15T08:42:07;14.23;;;11.33;;
48578;SDS011;34357;51.948;6.132;2024-01-15T08:44:36;13.40;;;10.87;;
48578;SDS011;34357;51.948;6.132;2024-01-15T08:47:06;12.93;;;10.07;;
48578;SDS011;34357;51.948;6.132;2024-01-15T08:49:35;15.73;;;9.60;;
48578;SDS011;34357;51.948;6.132;2024-01-15T08:52:02;13.70;;;9.20;;
48578;SDS011;34357;51.948;6.132;2024-01-15T08:54:27;12.70;;;8.57;;
48578;SDS011;34357;51.948;6.132;2024-01-15T08:56:56;11.23;;;8.50;;
48578;SDS011;34357;51.948;6.132;2024-01-15T08:59:25;14.07;;;7.93;;
48578;SDS011;34357;51.948;6.132;2024-01-15T09:01:53;9.23;;;6.23;;
48578;SDS011;34357;51.948;6.132;2024-01-15T09:04:22;12.30;;;7.07;;
48578;SDS011;34357;51.948;6.132;2024-01-15T09:06:49;12.10;;;6.43;;
48578;SDS011;34357;51.948;6.132;2024-01-15T09:09:14;6.83;;;4.77;;
48578;SDS011;34357;51.948;6.132;2024-01-15T09:11:41;12.53;;;5.90;;
48578;SDS011;34357;51.948;6.132;2024-01-15T09:14:07;8.40;;;4.33;;
48578;SDS011;34357;51.948;6.132;2024-01-15T09:16:33;10.63;;;4.93;;
48578;SDS011;34357;51.948;6.132;2024-01-15T09:18:59;12.47;;;3.43;;
48578;SDS011;34357;51.948;6.132;2024-01-15T09:21:25;8.77;;;4.67;;
48578;SDS011;34357;51.948;6.132;2024-01-15T09:23:51;12.67;;;5.93;;
48578;SDS011;34357;51.948;6.132;2024-01-15T09:26:17;13.67;;;6.27;;
48578;SDS011;34357;51.948;6.132;2024-01-15T09:28:46;10.03;;;5.20;;
48578;SDS011;34357;51.948;6.132;2024-01-15T09:31:12;14.00;;;5.63;;
48578;SDS011;34357;51.948;6.132;2024-01-15T09:33:37;8.27;;;3.73;;
48578;SDS011;34357;51.948;6.132;2024-01-15T09:36:03;13.70;;;5.90;;
48578;SDS011;34357;51.948;6.132;2024-01-15T09:38:30;14.30;;;6.50;;
48578;SDS011;34357;51.948;6.132;2024-01-15T09:41:00;14.73;;;7.67;;
48578;SDS011;34357;51.948;6.132;2024-01-15T09:43:26;12.93;;;7.03;;
48578;SDS011;34357;51.948;6.132;2024-01-15T09:45:52;13.57;;;6.60;;
48578;SDS011;34357;51.948;6.132;2024-01-15T09:48:19;13.77;;;6.43;;
48578;SDS011;34357;51.948;6.132;2024-01-15T09:50:48;14.93;;;6.87;;
48578;SDS011;34357;51.948;6.132;2024-01-15T09:53:15;9.53;;;5.97;;
48578;SDS011;34357;51.948;6.132;2024-01-15T09:55:41;14.83;;;6.60;;
48578;SDS011;34357;51.948;6.132;2024-01-15T09:58:07;14.63;;;6.47;;
48578;SDS011;34357;51.948;6.132;2024-01-15T10:00:33;8.30;;;3.80;;
48578;SDS011;34357;51.948;6.132;2024-01-15T10:03:04;15.02;;;5.97;;
48578;SDS011;34357;51.948;6.132;2024-01-15T10:05:31;7.43;;;2.80;;
48578;SDS011;34357;51.948;6.132;2024-01-15T10:07:57;8.53;;;3.43;;
48578;SDS011;34357;51.948;6.132;2024-01-15T10:10:26;5.63;;;1.97;;
48578;SDS011;34357;51.948;6.132;2024-01-15T10:12:52;5.80;;;2.50;;
48578;SDS011;34357;51.948;6.132;2024-01-15T10:15:23;5.83;;;2.80;;
48578;SDS011;34357;51.948;6.132;2024-01-15T10:17:49;7.83;;;2.60;;
48578;SDS011;34357;51.948;6.132;2024-01-15T10:20:16;7.83;;;2.03;;
48578;SDS011;34357;51.948;6.132;2024-01-15T10:22:41;7.67;;;2.30;;
48578;SDS011;34357;51.948;6.132;2024-01-15T10:25:12;7.37;;;2.13;;
48578;SDS011;34357;51.948;6.132;2024-01-15T10:27:40;8.07;;;1.90;;
48578;SDS011;34357;51.948;6.132;2024-01-15T10:30:09;6.13;;;0.83;;
48578;SDS011;34357;51.948;6.132;2024-01-15T10:35:55;4.67;;;1.23;;
48578;SDS011;34357;51.948;6.132;2024-01-15T10:38:23;3.53;;;1.25;;
48578;SDS011;34357;51.948;6.132;2024-01-15T10:40:53;3.70;;;1.30;;
48578;SDS011;34357;51.948;6.132;2024-01-15T10:43:21;8.88;;;2.03;;
48578;SDS011;34357;51.948;6.132;2024-01-15T10:45:48;3.23;;;1.13;;
48578;SDS011;34357;51.948;6.132;2024-01-15T10:48:17;9.73;;;1.97;;
48578;SDS011;34357;51.948;6.132;2024-01-15T10:50:47;6.78;;;1.60;;
48578;SDS011;34357;51.948;6.132;2024-01-15T10:53:14;5.93;;;1.77;;
48578;SDS011;34357;51.948;6.132;2024-01-15T10:55:42;7.50;;;2.03;;
48578;SDS011;34357;51.948;6.132;2024-01-15T10:58:08;7.87;;;1.80;;
48578;SDS011;34357;51.948;6.132;2024-01-15T11:00:35;7.83;;;2.40;;
48578;SDS011;34357;51.948;6.132;2024-01-15T11:03:05;7.20;;;3.33;;
48578;SDS011;34357;51.948;6.132;2024-01-15T11:05:38;5.17;;;2.47;;
48578;SDS011;34357;51.948;6.132;2024-01-15T11:08:08;9.73;;;4.00;;
48578;SDS011;34357;51.948;6.132;2024-01-15T11:10:38;7.67;;;4.13;;
48578;SDS011;34357;51.948;6.132;2024-01-15T11:13:07;3.90;;;2.83;;
48578;SDS011;34357;51.948;6.132;2024-01-15T11:15:59;7.27;;;4.20;;
48578;SDS011;34357;51.948;6.132;2024-01-15T11:18:35;10.93;;;5.73;;
48578;SDS011;34357;51.948;6.132;2024-01-15T11:23:46;11.47;;;5.60;;
48578;SDS011;34357;51.948;6.132;2024-01-15T11:28:56;10.90;;;5.60;;
48578;SDS011;34357;51.948;6.132;2024-01-15T11:34:05;7.10;;;3.40;;
48578;SDS011;34357;51.948;6.132;2024-01-15T11:41:59;8.38;;;3.33;;
48578;SDS011;34357;51.948;6.132;2024-01-15T11:44:27;12.87;;;4.83;;
48578;SDS011;34357;51.948;6.132;2024-01-15T11:47:06;10.50;;;4.27;;
48578;SDS011;34357;51.948;6.132;2024-01-15T11:52:32;10.00;;;3.40;;
48578;SDS011;34357;51.948;6.132;2024-01-15T11:57:51;7.43;;;2.30;;
48578;SDS011;34357;51.948;6.132;2024-01-15T12:00:18;10.63;;;3.10;;
48578;SDS011;34357;51.948;6.132;2024-01-15T12:02:46;8.83;;;3.20;;
48578;SDS011;34357;51.948;6.132;2024-01-15T12:05:14;10.33;;;2.63;;
48578;SDS011;34357;51.948;6.132;2024-01-15T12:07:45;16.47;;;3.73;;
48578;SDS011;34357;51.948;6.132;2024-01-15T12:10:15;12.90;;;2.92;;
48578;SDS011;34357;51.948;6.132;2024-01-15T12:12:58;11.03;;;3.20;;
48578;SDS011;34357;51.948;6.132;2024-01-15T12:15:29;13.20;;;3.37;;
48578;SDS011;34357;51.948;6.132;2024-01-15T12:17:56;8.53;;;2.47;;
48578;SDS011;34357;51.948;6.132;2024-01-15T12:20:26;8.88;;;2.97;;
48578;SDS011;34357;51.948;6.132;2024-01-15T12:22:54;10.40;;;2.37;;
48578;SDS011;34357;51.948;6.132;2024-01-15T12:25:21;15.23;;;2.40;;
48578;SDS011;34357;51.948;6.132;2024-01-15T12:27:48;9.88;;;2.15;;
48578;SDS011;34357;51.948;6.132;2024-01-15T12:30:15;8.55;;;1.80;;
48578;SDS011;34357;51.948;6.132;2024-01-15T12:32:42;12.52;;;2.53;;
48578;SDS011;34357;51.948;6.132;2024-01-15T12:35:09;12.98;;;2.13;;
48578;SDS011;34357;51.948;6.132;2024-01-15T12:37:37;9.25;;;1.75;;
48578;SDS011;34357;51.948;6.132;2024-01-15T12:40:06;7.95;;;1.70;;
48578;SDS011;34357;51.948;6.132;2024-01-15T12:42:40;15.77;;;2.08;;
48578;SDS011;34357;51.948;6.132;2024-01-15T12:45:07;9.23;;;1.77;;
48578;SDS011;34357;51.948;6.132;2024-01-15T12:47:34;9.47;;;2.30;;
48578;SDS011;34357;51.948;6.132;2024-01-15T12:50:02;10.30;;;2.40;;
48578;SDS011;34357;51.948;6.132;2024-01-15T12:52:33;8.07;;;1.80;;
48578;SDS011;34357;51.948;6.132;2024-01-15T12:55:00;3.40;;;1.30;;
48578;SDS011;34357;51.948;6.132;2024-01-15T12:57:30;8.07;;;0.77;;
48578;SDS011;34357;51.948;6.132;2024-01-15T12:59:56;4.03;;;0.80;;
48578;SDS011;34357;51.948;6.132;2024-01-15T13:02:24;5.10;;;1.27;;
48578;SDS011;34357;51.948;6.132;2024-01-15T13:04:51;3.07;;;1.03;;
48578;SDS011;34357;51.948;6.132;2024-01-15T13:07:17;2.67;;;0.83;;
48578;SDS011;34357;51.948;6.132;2024-01-15T13:09:43;3.37;;;0.90;;
48578;SDS011;34357;51.948;6.132;2024-01-15T13:12:09;4.40;;;0.90;;
48578;SDS011;34357;51.948;6.132;2024-01-15T13:14:37;3.40;;;0.70;;
48578;SDS011;34357;51.948;6.132;2024-01-15T13:17:03;2.87;;;0.90;;
48578;SDS011;34357;51.948;6.132;2024-01-15T13:19:29;6.07;;;1.20;;
48578;SDS011;34357;51.948;6.132;2024-01-15T13:21:58;5.03;;;1.30;;
48578;SDS011;34357;51.948;6.132;2024-01-15T13:24:28;3.63;;;1.20;;
48578;SDS011;34357;51.948;6.132;2024-01-15T13:26:54;6.87;;;1.23;;
48578;SDS011;34357;51.948;6.132;2024-01-15T13:29:22;6.32;;;1.38;;
48578;SDS011;34357;51.948;6.132;2024-01-15T13:31:48;8.90;;;2.22;;
48578;SDS011;34357;51.948;6.132;2024-01-15T13:34:15;6.35;;;1.73;;
48578;SDS011;34357;51.948;6.132;2024-01-15T13:36:41;6.00;;;1.87;;
48578;SDS011;34357;51.948;6.132;2024-01-15T13:39:08;6.80;;;1.70;;
48578;SDS011;34357;51.948;6.132;2024-01-15T13:41:35;8.35;;;1.08;;
48578;SDS011;34357;51.948;6.132;2024-01-15T13:44:01;6.87;;;1.30;;
48578;SDS011;34357;51.948;6.132;2024-01-15T13:46:28;6.05;;;1.30;;
48578;SDS011;34357;51.948;6.132;2024-01-15T13:48:55;6.80;;;1.27;;
48578;SDS011;34357;51.948;6.132;2024-01-15T13:51:22;7.17;;;1.10;;
48578;SDS011;34357;51.948;6.132;2024-01-15T13:53:51;10.37;;;1.73;;
48578;SDS011;34357;51.948;6.132;2024-01-15T13:56:18;5.53;;;1.40;;
48578;SDS011;34357;51.948;6.132;2024-01-15T13:58:45;8.43;;;1.30;;
48578;SDS011;34357;51.948;6.132;2024-01-15T14:01:13;7.43;;;1.17;;
48578;SDS011;34357;51.948;6.132;2024-01-15T14:03:39;8.57;;;1.63;;
48578;SDS011;34357;51.948;6.132;2024-01-15T14:06:05;6.13;;;1.20;;
48578;SDS011;34357;51.948;6.132;2024-01-15T14:08:35;8.93;;;1.23;;
48578;SDS011;34357;51.948;6.132;2024-01-15T14:11:02;7.43;;;0.90;;
48578;SDS011;34357;51.948;6.132;2024-01-15T14:13:28;9.03;;;1.33;;
48578;SDS011;34357;51.948;6.132;2024-01-15T14:15:55;3.97;;;1.10;;
48578;SDS011;34357;51.948;6.132;2024-01-15T14:18:21;9.20;;;0.97;;
48578;SDS011;34357;51.948;6.132;2024-01-15T14:20:47;7.87;;;1.17;;
48578;SDS011;34357;51.948;6.132;2024-01-15T14:23:13;10.97;;;1.33;;
48578;SDS011;34357;51.948;6.132;2024-01-15T14:25:39;4.93;;;1.13;;
48578;SDS011;34357;51.948;6.132;2024-01-15T14:28:05;7.00;;;1.33;;
48578;SDS011;34357;51.948;6.132;2024-01-15T14:30:32;11.47;;;2.40;;
48578;SDS011;34357;51.948;6.132;2024-01-15T14:32:58;8.37;;;1.40;;
48578;SDS011;34357;51.948;6.132;2024-01-15T14:35:24;8.67;;;1.40;;
48578;SDS011;34357;51.948;6.132;2024-01-15T14:37:50;6.75;;;1.15;;
48578;SDS011;34357;51.948;6.132;2024-01-15T14:40:16;9.70;;;1.27;;
48578;SDS011;34357;51.948;6.132;2024-01-15T14:42:43;7.00;;;0.80;;
48578;SDS011;34357;51.948;6.132;2024-01-15T14:45:10;6.37;;;1.00;;
48578;SDS011;34357;51.948;6.132;2024-01-15T14:47:39;7.47;;;1.30;;
48578;SDS011;34357;51.948;6.132;2024-01-15T14:50:06;8.90;;;1.10;;
48578;SDS011;34357;51.948;6.132;2024-01-15T14:52:33;5.67;;;1.00;;
48578;SDS011;34357;51.948;6.132;2024-01-15T14:55:00;10.53;;;1.30;;
48578;SDS011;34357;51.948;6.132;2024-01-15T14:57:29;7.17;;;1.20;;
48578;SDS011;34357;51.948;6.132;2024-01-15T14:59:55;5.40;;;1.40;;